Time;durP1;ratioP1;P1;durP2;ratioP2;P2;SDS_P1;SDS_P2;PMS_P1;PMS_P2;Temp;Humidity;BMP_temperature;BMP_pressure;BME280_temperature;BME280_humidity;BME280_pressure;Samples;Min_cycle;Max_cycle;Signal;HPM_P1;HPM_P2
2023/08/19 00:01:32;;;;;;;29.77;23.58;;;;;;;28.52;55.68;101154.94;6175983;23;20021;-80
2023/08/19 00:03:59;;;;;;;28.38;23.98;;;;;;;28.19;55.70;101096.38;6148381;23;20255;-79
2023/08/19 00:06:34;;;;;;;29.13;22.52;;;;;;;28.64;54.75;101153.00;6149957;23;20020;-82
2023/08/19 00:09:08;;;;;;;28.90;23.05;;;;;;;28.70;54.26;101143.00;6162952;23;20673;-79
2023/08/19 00:11:39;;;;;;;29.40;23.60;;;;;;;28.71;54.59;101144.66;6146682;23;20035;-78
2023/08/19 00:14:06;;;;;;;26.67;23.13;;;;;;;28.80;54.20;101142.38;6173282;23;20031;-79
2023/08/19 00:16:34;;;;;;;33.38;24.10;;;;;;;28.77;54.69;101155.44;6174494;23;20030;-79
2023/08/19 00:19:01;;;;;;;37.45;23.75;;;;;;;28.55;55.11;101127.16;6165604;23;20086;-79
2023/08/19 00:21:28;;;;;;;34.67;23.42;;;;;;;28.43;55.20;101124.44;6171913;23;20040;-80
2023/08/19 00:23:56;;;;;;;31.92;24.13;;;;;;;28.45;55.49;101132.38;6166340;23;20403;-78
2023/08/19 00:26:25;;;;;;;34.75;25.52;;;;;;;28.56;55.59;101150.66;6169765;23;20096;-79
2023/08/19 00:28:52;;;;;;;29.67;24.30;;;;;;;28.26;55.78;101105.25;6124629;23;20020;-80
2023/08/19 00:31:18;;;;;;;29.58;24.80;;;;;;;28.26;55.51;101113.44;6102509;23;20360;-79
2023/08/19 00:33:45;;;;;;;33.22;25.27;;;;;;;28.40;55.97;101148.66;6148475;23;20019;-81
2023/08/19 00:36:12;;;;;;;33.65;24.88;;;;;;;28.16;55.72;101115.97;6165098;23;20021;-79
2023/08/19 00:38:39;;;;;;;28.83;24.23;;;;;;;28.29;56.26;101145.72;6178341;23;20376;-79
2023/08/19 00:41:05;;;;;;;28.88;23.45;;;;;;;28.33;55.90;101160.56;6167765;23;20017;-79
2023/08/19 00:43:32;;;;;;;31.27;24.02;;;;;;;28.25;55.62;101150.00;6166220;23;20082;-80
2023/08/19 00:45:59;;;;;;;29.90;24.70;;;;;;;27.97;56.03;101117.19;6162018;23;20020;-80
2023/08/19 00:48:26;;;;;;;27.73;23.17;;;;;;;27.98;55.76;101116.13;6158664;23;20672;-81
2023/08/19 00:51:02;;;;;;;32.47;25.13;;;;;;;28.12;55.97;101151.09;6137851;23;20012;-80
2023/08/19 00:53:34;;;;;;;33.85;24.33;;;;;;;27.90;56.27;101126.31;6124926;23;20028;-80
2023/08/19 00:56:10;;;;;;;31.50;23.60;;;;;;;28.02;56.48;101129.03;6096143;23;20860;-80
2023/08/19 00:58:51;;;;;;;28.77;24.67;;;;;;;28.04;56.53;101137.00;6126822;23;20056;-80
2023/08/19 01:01:23;;;;;;;35.67;25.10;;;;;;;28.09;56.84;101145.28;6136248;23;20070;-81
2023/08/19 01:03:55;;;;;;;30.52;24.63;;;;;;;28.05;57.09;101149.56;6162627;23;20012;-81
2023/08/19 01:06:38;;;;;;;29.02;24.15;;;;;;;28.05;56.70;101150.38;6177624;23;20016;-79
2023/08/19 01:09:26;;;;;;;30.33;23.48;;;;;;;28.04;56.17;101153.38;6181596;23;20083;-80
2023/08/19 01:12:18;;;;;;;31.98;23.90;;;;;;;27.34;56.24;101045.94;6161949;23;20107;-80
2023/08/19 01:14:59;;;;;;;30.02;24.08;;;;;;;28.05;56.62;101160.47;6118868;23;20609;-79
2023/08/19 01:17:32;;;;;;;35.50;24.27;;;;;;;27.93;56.19;101146.84;6146296;23;20510;-79
2023/08/19 01:20:00;;;;;;;30.13;24.67;;;;;;;27.92;56.49;101140.56;6157421;23;20087;-79
2023/08/19 01:22:50;;;;;;;33.65;25.23;;;;;;;28.03;56.67;101173.53;6165378;23;20299;-80
2023/08/19 01:25:23;;;;;;;;;;;;;;;28.06;56.47;101170.31;6144040;23;20031;-80
2023/08/19 01:27:51;;;;;;;32.97;25.42;;;;;;;28.03;56.46;101173.53;6172570;23;20381;-81
2023/08/19 01:30:18;;;;;;;30.10;24.70;;;;;;;27.74;57.15;101156.19;6150307;23;20021;-81
2023/08/19 01:32:48;;;;;;;35.70;24.63;;;;;;;27.80;57.44;101180.63;6161494;23;20017;-81
2023/08/19 01:35:23;;;;;;;32.63;25.65;;;;;;;27.57;57.33;101153.34;6163937;23;20031;-80
2023/08/19 01:38:10;;;;;;;31.40;26.55;;;;;;;27.74;57.86;101178.84;6186134;23;20016;-80
2023/08/19 01:40:39;;;;;;;30.75;24.55;;;;;;;27.73;57.57;101174.47;6161120;23;20475;-79
2023/08/19 01:43:10;;;;;;;32.50;25.92;;;;;;;27.34;57.66;101118.72;6166568;23;20040;-80
2023/08/19 01:45:45;;;;;;;34.13;26.38;;;;;;;27.62;58.03;101161.63;6179870;23;20362;-79
2023/08/19 01:48:20;;;;;;;30.27;25.85;;;;;;;27.65;57.93;101163.91;6163222;23;20701;-79
2023/08/19 01:50:47;;;;;;;35.63;26.33;;;;;;;27.60;57.70;101147.41;6167914;23;20279;-80
2023/08/19 01:53:13;;;;;;;29.95;25.83;;;;;;;27.58;57.92;101150.38;6157807;23;20020;-79
2023/08/19 01:55:40;;;;;;;36.38;26.13;;;;;;;27.65;58.26;101177.56;6180545;23;20031;-79
2023/08/19 01:58:07;;;;;;;40.08;25.90;;;;;;;27.31;58.10;101121.88;6155952;23;20096;-80
2023/08/19 02:00:38;;;;;;;39.33;27.17;;;;;;;27.22;58.48;101115.97;6111033;23;20276;-80
2023/08/19 02:03:08;;;;;;;36.53;27.95;;;;;;;27.49;58.48;101162.69;6146137;23;20516;-80
2023/08/19 02:05:35;;;;;;;37.50;28.58;;;;;;;27.56;58.89;101187.13;6184967;23;20095;-80
2023/08/19 02:08:02;;;;;;;38.15;28.70;;;;;;;27.46;58.74;101169.47;6150988;23;20025;-81
2023/08/19 02:10:33;;;;;;;32.25;27.20;;;;;;;27.52;58.82;101188.66;6141429;23;20052;-80
2023/08/19 02:13:03;;;;;;;34.97;26.95;;;;;;;27.48;59.14;101185.59;6162647;23;20257;-80
2023/08/19 02:15:34;;;;;;;39.13;26.25;;;;;;;27.19;59.05;101157.31;6142846;23;20031;-81
2023/08/19 02:18:01;;;;;;;;;;;;;;;27.04;59.43;101144.94;6098671;23;20288;-80
2023/08/19 02:20:35;;;;;;;33.08;26.25;;;;;;;27.00;59.35;101134.72;6145445;23;20244;-81
2023/08/19 02:23:04;;;;;;;33.05;27.02;;;;;;;27.33;59.39;101179.72;6122849;23;20677;-79
2023/08/19 02:25:35;;;;;;;29.38;26.20;;;;;;;27.32;59.06;101184.38;6121115;23;20509;-81
2023/08/19 02:28:06;;;;;;;31.23;25.95;;;;;;;27.18;59.33;101152.91;6155481;23;20050;-80
2023/08/19 02:30:39;;;;;;;32.67;24.33;;;;;;;27.11;59.13;101154.88;6150220;23;20452;-79
2023/08/19 02:33:11;;;;;;;33.67;25.65;;;;;;;27.36;58.81;101190.19;6103943;23;20024;-80
2023/08/19 02:35:49;;;;;;;41.22;24.13;;;;;;;27.02;58.84;101141.59;6131523;23;20016;-80
2023/08/19 02:38:16;;;;;;;29.00;25.05;;;;;;;27.25;59.07;101183.63;6121233;23;20017;-81
2023/08/19 02:40:51;;;;;;;27.83;24.75;;;;;;;27.30;59.09;101182.94;6125852;23;20025;-81
2023/08/19 02:43:18;;;;;;;36.00;24.02;;;;;;;27.23;59.00;101180.31;6123237;23;20028;-78
2023/08/19 02:45:47;;;;;;;32.25;24.52;;;;;;;26.82;59.16;101122.84;6146538;23;20666;-80
2023/08/19 02:48:15;;;;;;;37.67;25.27;;;;;;;27.17;59.15;101181.22;6139845;23;20071;-78
2023/08/19 02:50:42;;;;;;;33.67;24.98;;;;;;;27.09;59.50;101168.75;6169327;23;20137;-81
2023/08/19 02:53:12;;;;;;;33.78;26.02;;;;;;;26.93;59.54;101144.91;6172067;23;20097;-80
2023/08/19 02:55:41;;;;;;;34.73;24.23;;;;;;;26.97;59.66;101157.81;6149930;23;20039;-79
2023/08/19 02:58:08;;;;;;;30.33;25.08;;;;;;;26.89;59.76;101149.97;6167961;23;20040;-79
2023/08/19 03:00:38;;;;;;;34.63;25.35;;;;;;;26.84;60.02;101150.66;6156439;23;20101;-81
2023/08/19 03:03:06;;;;;;;28.05;24.92;;;;;;;26.54;60.07;101090.75;6166405;23;20769;-81
2023/08/19 03:05:38;;;;;;;29.65;25.48;;;;;;;26.99;59.99;101163.88;6172106;23;20375;-81
2023/08/19 03:08:13;;;;;;;29.80;25.00;;;;;;;27.03;60.34;101181.41;6147162;23;20432;-80
2023/08/19 03:10:42;;;;;;;36.13;25.60;;;;;;;26.61;60.10;101120.63;6173523;23;20111;-80
2023/08/19 03:13:09;;;;;;;31.65;24.38;;;;;;;26.93;60.21;101175.69;6143876;23;20016;-81
2023/08/19 03:15:41;;;;;;;33.60;24.90;;;;;;;26.93;60.23;101169.41;6141039;23;20652;-80
2023/08/19 03:18:09;;;;;;;35.63;25.60;;;;;;;26.94;60.34;101174.59;6146309;23;20012;-80
2023/08/19 03:20:39;;;;;;;33.95;26.27;;;;;;;26.89;60.13;101151.84;6137300;23;20021;-80
2023/08/19 03:23:06;;;;;;;32.97;26.77;;;;;;;26.90;60.30;101176.16;6119608;23;20358;-80
2023/08/19 03:25:40;;;;;;;32.17;25.65;;;;;;;26.86;60.54;101180.38;6159927;23;20047;-81
2023/08/19 03:28:15;;;;;;;37.30;27.95;;;;;;;26.45;60.88;101124.75;6150446;23;20362;-79
2023/08/19 03:30:42;;;;;;;33.20;25.52;;;;;;;26.72;60.89;101162.56;6181875;23;20398;-80
2023/08/19 03:33:08;;;;;;;41.95;27.73;;;;;;;26.75;61.17;101168.41;6172240;23;20021;-81
2023/08/19 03:35:35;;;;;;;37.58;27.33;;;;;;;26.66;61.31;101155.34;6172287;23;20059;-81
2023/08/19 03:38:03;;;;;;;33.78;26.75;;;;;;;26.51;61.35;101129.31;6149506;23;20410;-80
2023/08/19 03:40:30;;;;;;;35.55;26.30;;;;;;;25.94;61.04;101041.69;6158501;23;20429;-80
2023/08/19 03:42:57;;;;;;;30.40;25.85;;;;;;;26.32;61.04;101103.16;6167405;23;20019;-79
2023/08/19 03:45:23;;;;;;;34.63;26.40;;;;;;;26.68;61.17;101161.34;6155844;23;20352;-80
2023/08/19 03:47:50;;;;;;;30.95;26.83;;;;;;;26.66;60.91;101153.44;6164432;23;20082;-78
2023/08/19 03:50:17;;;;;;;32.83;26.67;;;;;;;26.47;60.78;101122.66;6166649;23;20519;-80
2023/08/19 03:52:44;;;;;;;33.55;26.65;;;;;;;26.58;61.14;101140.97;6140080;23;20091;-79
2023/08/19 03:55:10;;;;;;;32.53;26.27;;;;;;;26.45;61.37;101141.09;6151785;23;20519;-79
2023/08/19 03:57:37;;;;;;;37.70;25.98;;;;;;;26.34;61.46;101122.84;6157225;23;20028;-79
2023/08/19 04:00:06;;;;;;;32.58;24.30;;;;;;;26.47;61.06;101147.16;6150817;23;20095;-80
2023/08/19 04:02:40;;;;;;;35.63;25.67;;;;;;;26.48;60.86;101154.25;6169695;23;20028;-80
2023/08/19 04:05:10;;;;;;;41.97;25.35;;;;;;;26.38;60.81;101143.06;6182115;23;20036;-80
2023/08/19 04:07:42;;;;;;;35.20;25.63;;;;;;;26.01;60.48;101091.41;6159020;23;20572;-79
2023/08/19 04:10:14;;;;;;;29.85;24.17;;;;;;;26.27;60.69;101143.84;6155033;23;20051;-79
2023/08/19 04:12:41;;;;;;;33.78;26.70;;;;;;;26.49;60.93;101185.88;6169536;23;20020;-80
2023/08/19 04:15:12;;;;;;;38.30;25.20;;;;;;;26.41;61.26;101175.28;6163188;23;20463;-80
2023/08/19 04:17:39;;;;;;;34.13;25.55;;;;;;;26.47;60.51;101182.53;6154560;23;20025;-80
2023/08/19 04:20:08;;;;;;;32.67;24.75;;;;;;;26.44;60.73;101189.28;6148276;23;20116;-78
2023/08/19 04:22:37;;;;;;;29.17;24.60;;;;;;;26.33;60.78;101187.28;6146816;23;20349;-79
2023/08/19 04:25:04;;;;;;;30.90;26.35;;;;;;;26.19;60.94;101178.47;6136072;23;20336;-80
2023/08/19 04:27:31;;;;;;;32.33;25.60;;;;;;;26.37;61.10;101204.84;6153869;23;20131;-80
2023/08/19 04:29:58;;;;;;;32.78;25.02;;;;;;;26.38;61.04;101213.84;6128672;23;20071;-78
2023/08/19 04:32:25;;;;;;;42.17;25.83;;;;;;;26.38;61.10;101205.66;6174821;23;20021;-80
2023/08/19 04:34:52;;;;;;;30.63;24.05;;;;;;;26.18;60.80;101178.69;6141205;23;20017;-79
2023/08/19 04:37:19;;;;;;;33.50;22.60;;;;;;;26.38;60.66;101217.38;6145774;23;20372;-82
2023/08/19 04:39:51;;;;;;;29.35;21.90;;;;;;;26.26;60.39;101189.25;6113929;23;20024;-82
2023/08/19 04:42:25;;;;;;;32.88;22.00;;;;;;;26.43;59.95;101219.44;6119036;23;20325;-82
2023/08/19 04:44:52;;;;;;;41.95;22.90;;;;;;;26.44;59.92;101215.66;6170493;23;20020;-81
2023/08/19 04:47:20;;;;;;;31.60;21.95;;;;;;;26.51;59.56;101216.41;6162360;23;20075;-80
2023/08/19 04:49:46;;;;;;;34.72;21.15;;;;;;;26.53;59.43;101219.78;6153914;23;20349;-81
2023/08/19 04:52:13;;;;;;;38.05;22.77;;;;;;;26.43;59.70;101192.22;6145800;23;20758;-81
2023/08/19 04:54:40;;;;;;;31.77;22.00;;;;;;;26.47;60.01;101214.38;6179902;23;20640;-81
2023/08/19 04:57:11;;;;;;;29.30;21.95;;;;;;;26.41;60.25;101199.78;6149503;23;20480;-80
2023/08/19 04:59:40;;;;;;;32.33;22.55;;;;;;;26.43;60.04;101200.38;6136194;23;20428;-83
2023/08/19 05:02:16;;;;;;;30.42;21.83;;;;;;;26.55;60.14;101223.09;6139811;23;20157;-83
2023/08/19 05:04:47;;;;;;;34.53;22.35;;;;;;;26.44;60.08;101185.72;6132184;23;20242;-80
2023/08/19 05:07:14;;;;;;;28.48;22.35;;;;;;;26.63;59.78;101203.75;6158295;23;20471;-80
2023/08/19 05:09:47;;;;;;;35.33;23.27;;;;;;;26.78;59.75;101216.13;6156395;23;20309;-80
2023/08/19 05:12:14;;;;;;;30.55;22.70;;;;;;;26.83;59.47;101224.44;6184881;23;20375;-81
2023/08/19 05:14:40;;;;;;;32.45;23.60;;;;;;;26.72;59.32;101217.03;6174040;23;20096;-82
2023/08/19 05:17:07;;;;;;;30.98;22.70;;;;;;;26.37;59.86;101165.91;6146504;23;20392;-81
2023/08/19 05:19:36;;;;;;;37.25;24.48;;;;;;;26.70;60.28;101235.50;6178657;23;20016;-81
2023/08/19 05:22:03;;;;;;;33.35;23.50;;;;;;;26.64;59.78;101226.34;6145713;23;20031;-81
2023/08/19 05:24:29;;;;;;;31.23;22.90;;;;;;;26.64;59.90;101227.19;6160496;23;20028;-82
2023/08/19 05:26:56;;;;;;;33.78;23.02;;;;;;;26.71;59.73;101232.53;6157027;23;20020;-80
2023/08/19 05:29:24;;;;;;;28.48;22.83;;;;;;;26.65;59.34;101217.09;6163688;23;20021;-81
2023/08/19 05:31:50;;;;;;;28.90;23.48;;;;;;;26.38;60.49;101181.19;6172286;23;20114;-81
2023/08/19 05:34:24;;;;;;;36.72;23.10;;;;;;;26.74;59.99;101237.53;6155241;23;20111;-81
2023/08/19 05:36:57;;;;;;;28.95;22.67;;;;;;;26.52;59.79;101184.56;6152472;23;20040;-80
2023/08/19 05:39:24;;;;;;;32.85;23.60;;;;;;;26.92;59.87;101239.41;6161155;23;20020;-82
2023/08/19 05:41:51;;;;;;;32.70;24.35;;;;;;;26.94;59.47;101245.44;6170411;23;20583;-79
2023/08/19 05:44:21;;;;;;;35.47;23.98;;;;;;;26.98;59.50;101243.94;6130069;23;20518;-80
2023/08/19 05:46:55;;;;;;;36.22;24.25;;;;;;;26.98;59.71;101243.94;6115043;23;20223;-80
2023/08/19 05:49:28;;;;;;;31.90;22.83;;;;;;;27.04;59.95;101237.56;6153950;23;20012;-80
2023/08/19 05:51:55;;;;;;;39.63;24.08;;;;;;;26.72;59.75;101184.34;6171413;23;20356;-80
2023/08/19 05:54:22;;;;;;;34.00;23.45;;;;;;;27.08;59.15;101244.22;6183899;23;20408;-81
2023/08/19 05:56:49;;;;;;;29.13;23.95;;;;;;;27.02;58.85;101223.34;6166864;23;20038;-80
2023/08/19 05:59:16;;;;;;;39.28;23.27;;;;;;;27.17;59.09;101242.00;6167969;23;20036;-81
2023/08/19 06:01:43;;;;;;;42.50;23.58;;;;;;;27.07;58.68;101220.75;6156226;23;20098;-79
2023/08/19 06:04:15;;;;;;;35.95;23.55;;;;;;;27.25;58.68;101249.88;6162000;23;20029;-80
2023/08/19 06:06:48;;;;;;;32.47;23.88;;;;;;;27.07;58.97;101207.13;6186042;23;20091;-79
2023/08/19 06:09:17;;;;;;;35.97;23.17;;;;;;;27.31;59.12;101242.69;6130977;23;20051;-81
2023/08/19 06:11:50;;;;;;;31.73;23.83;;;;;;;27.36;59.13;101251.00;6165206;23;20264;-79
2023/08/19 06:14:17;;;;;;;29.73;23.83;;;;;;;27.40;59.18;101252.16;6154836;23;20519;-80
2023/08/19 06:16:46;;;;;;;39.88;23.98;;;;;;;27.44;59.25;101258.81;6172547;23;20383;-80
2023/08/19 06:19:20;;;;;;;34.00;23.02;;;;;;;27.34;58.71;101236.75;6183349;23;20260;-80
2023/08/19 06:21:53;;;;;;;40.40;24.48;;;;;;;27.36;59.00;101226.47;6154984;23;20017;-80
2023/08/19 06:24:23;;;;;;;35.63;21.73;;;;;;;27.61;57.63;101247.25;6152738;23;20456;-80
2023/08/19 06:26:54;;;;;;;33.13;20.85;;;;;;;27.54;57.05;101235.63;6174389;23;20021;-80
2023/08/19 06:29:20;;;;;;;30.08;22.10;;;;;;;27.70;56.81;101262.22;6171463;23;20123;-81
2023/08/19 06:31:48;;;;;;;34.72;20.60;;;;;;;27.82;56.05;101260.38;6174071;23;20025;-81
2023/08/19 06:34:15;;;;;;;25.25;20.02;;;;;;;27.87;55.39;101268.69;6168295;23;20024;-80
2023/08/19 06:36:45;;;;;;;27.38;21.33;;;;;;;28.04;54.64;101263.34;6196895;23;20025;-80
2023/08/19 06:39:29;;;;;;;26.98;19.70;;;;;;;27.90;55.10;101261.91;6144364;23;20020;-81
2023/08/19 06:42:06;;;;;;;34.83;20.27;;;;;;;27.97;55.07;101270.00;6179317;23;20278;-79
2023/08/19 06:44:41;;;;;;;24.30;19.27;;;;;;;27.78;55.21;101239.22;6166823;23;20495;-79
2023/08/19 06:47:12;;;;;;;26.75;20.92;;;;;;;27.67;55.75;101225.34;6175055;23;20410;-78
2023/08/19 06:49:49;;;;;;;29.92;20.58;;;;;;;27.80;55.37;101229.75;6173136;23;20019;-79
2023/08/19 06:52:18;;;;;;;29.13;21.00;;;;;;;28.00;55.58;101258.59;6166422;23;20055;-79
2023/08/19 06:54:54;;;;;;;31.92;21.48;;;;;;;27.96;55.08;101239.13;6142461;23;20027;-81
2023/08/19 06:57:29;;;;;;;30.73;22.38;;;;;;;28.20;54.52;101256.34;6155402;23;20051;-82
2023/08/19 07:00:04;;;;;;;32.33;21.70;;;;;;;28.17;55.00;101256.00;6158244;23;20017;-81
2023/08/19 07:02:36;;;;;;;28.65;22.02;;;;;;;28.26;55.10;101269.06;6140066;23;20258;-82
2023/08/19 07:05:14;;;;;;;29.40;20.60;;;;;;;28.27;54.87;101269.88;6173184;23;20337;-81
2023/08/19 07:07:48;;;;;;;35.78;20.48;;;;;;;28.31;54.83;101262.88;6179528;23;20322;-81
2023/08/19 07:10:20;;;;;;;28.15;21.30;;;;;;;28.41;54.47;101273.19;6166492;23;20028;-82
2023/08/19 07:12:48;;;;;;;23.13;20.27;;;;;;;28.45;54.46;101268.91;6173510;23;20021;-81
2023/08/19 07:15:15;;;;;;;27.35;22.00;;;;;;;28.14;54.98;101224.56;6167249;23;20306;-81
2023/08/19 07:17:47;;;;;;;26.65;20.90;;;;;;;28.40;54.40;101261.47;6175518;23;20029;-81
2023/08/19 07:20:18;;;;;;;30.73;21.73;;;;;;;28.05;54.38;101198.69;6178464;23;20020;-81
2023/08/19 07:22:51;;;;;;;31.98;22.33;;;;;;;28.47;54.02;101256.72;6167434;23;20362;-81
2023/08/19 07:25:19;;;;;;;29.15;21.23;;;;;;;28.65;54.07;101279.50;6164054;23;20016;-81
2023/08/19 07:27:46;;;;;;;26.17;20.67;;;;;;;28.87;53.08;101276.94;6165425;23;20063;-82
2023/08/19 07:30:14;;;;;;;29.80;21.75;;;;;;;28.85;53.04;101284.56;6156388;23;20538;-81
2023/08/19 07:32:43;;;;;;;28.23;20.98;;;;;;;28.87;53.73;101282.41;6153869;23;20039;-82
2023/08/19 07:35:10;;;;;;;34.95;22.38;;;;;;;28.30;53.48;101193.81;6167406;23;20506;-82
2023/08/19 07:37:37;;;;;;;30.75;21.38;;;;;;;28.89;53.34;101291.19;6160893;23;20044;-82
2023/08/19 07:40:06;;;;;;;34.05;22.27;;;;;;;28.78;53.39;101262.81;6162813;23;20012;-82
2023/08/19 07:42:32;;;;;;;27.05;21.98;;;;;;;28.80;53.26;101265.31;6149536;23;20020;-82
2023/08/19 07:44:59;;;;;;;31.85;22.23;;;;;;;28.79;53.43;101259.03;6169314;23;20634;-81
2023/08/19 07:47:26;;;;;;;28.35;22.73;;;;;;;28.94;53.06;101278.47;6163066;23;20021;-81
2023/08/19 07:49:53;;;;;;;29.95;22.08;;;;;;;29.03;52.62;101278.91;6171167;23;20027;-81
2023/08/19 07:52:20;;;;;;;29.35;23.05;;;;;;;29.02;52.48;101268.22;6140786;23;20375;-82
2023/08/19 07:54:47;;;;;;;32.22;21.80;;;;;;;29.12;52.58;101280.19;6155058;23;20017;-80
2023/08/19 07:57:14;;;;;;;24.75;20.95;;;;;;;28.55;52.28;101187.25;6149725;23;20063;-82
2023/08/19 07:59:40;;;;;;;31.95;22.73;;;;;;;29.17;52.21;101283.03;6139474;23;20269;-82
2023/08/19 08:02:07;;;;;;;29.02;23.65;;;;;;;29.04;51.87;101244.22;6133063;23;20021;-82
2023/08/19 08:04:38;;;;;;;33.10;22.83;;;;;;;29.37;51.60;101274.41;6145103;23;20290;-82
2023/08/19 08:07:05;;;;;;;26.60;21.42;;;;;;;29.36;51.91;101274.63;6173739;23;20119;-83
2023/08/19 08:09:35;;;;;;;30.60;21.75;;;;;;;29.41;51.26;101266.53;6175055;23;20287;-81
2023/08/19 08:12:03;;;;;;;29.10;21.63;;;;;;;29.47;50.96;101271.03;6180396;23;20059;-81
2023/08/19 08:14:30;;;;;;;31.67;23.73;;;;;;;29.39;50.33;101246.78;6157342;23;20256;-80
2023/08/19 08:16:56;;;;;;;24.58;21.25;;;;;;;29.48;50.16;101261.72;6148570;23;20460;-81
2023/08/19 08:19:25;;;;;;;29.08;21.48;;;;;;;29.66;50.32;101273.50;6166275;23;20071;-81
2023/08/19 08:21:54;;;;;;;30.17;21.65;;;;;;;29.51;50.69;101246.72;6163866;23;20654;-82
2023/08/19 08:24:22;;;;;;;29.27;21.45;;;;;;;29.65;51.28;101266.41;6157475;23;20082;-82
2023/08/19 08:26:49;;;;;;;27.75;22.38;;;;;;;29.74;50.08;101264.94;6187339;23;20104;-81
2023/08/19 08:29:16;;;;;;;28.80;21.77;;;;;;;29.75;49.91;101256.47;6151727;23;20013;-79
2023/08/19 08:31:43;;;;;;;23.45;21.10;;;;;;;29.90;50.32;101275.03;6160906;23;20277;-79
2023/08/19 08:34:09;;;;;;;28.48;21.70;;;;;;;29.79;50.23;101246.69;6177427;23;20280;-79
2023/08/19 08:36:36;;;;;;;23.30;20.42;;;;;;;29.56;50.93;101203.88;6170813;23;20035;-81
2023/08/19 08:39:04;;;;;;;25.10;19.95;;;;;;;29.99;50.36;101268.09;6180233;23;20445;-78
2023/08/19 08:41:37;;;;;;;25.38;20.17;;;;;;;29.90;49.62;101246.84;6167539;23;20043;-80
2023/08/19 08:44:06;;;;;;;23.83;19.63;;;;;;;30.23;49.31;101278.84;6161312;23;20027;-81
2023/08/19 08:46:34;;;;;;;26.80;19.48;;;;;;;30.24;49.06;101270.41;6159296;23;20021;-81
2023/08/19 08:49:01;;;;;;;29.63;20.80;;;;;;;30.34;48.83;101286.19;6179601;23;20353;-82
2023/08/19 08:51:28;;;;;;;23.85;18.80;;;;;;;30.16;48.04;101242.59;6180305;23;20024;-81
2023/08/19 08:53:56;;;;;;;22.17;18.98;;;;;;;30.28;47.89;101259.78;6136985;23;20781;-82
2023/08/19 08:56:27;;;;;;;26.35;19.08;;;;;;;30.01;48.32;101216.66;6156637;23;20051;-80
2023/08/19 08:58:54;;;;;;;23.40;19.88;;;;;;;30.48;47.68;101259.22;6181049;23;20075;-80
2023/08/19 09:01:24;;;;;;;22.75;19.13;;;;;;;30.23;47.41;101204.91;6177158;23;20019;-81
2023/08/19 09:04:02;;;;;;;23.20;18.23;;;;;;;30.71;46.64;101271.03;6153891;23;20344;-82
2023/08/19 09:06:29;;;;;;;26.63;19.35;;;;;;;30.80;46.35;101285.94;6171535;23;20342;-80
2023/08/19 09:09:04;;;;;;;22.67;17.50;;;;;;;30.55;46.31;101237.13;6149300;23;20540;-81
2023/08/19 09:11:43;;;;;;;20.02;17.88;;;;;;;30.90;45.86;101288.84;6171463;23;20306;-80
2023/08/19 09:14:29;;;;;;;21.42;18.50;;;;;;;30.88;46.13;101288.28;6141298;23;20219;-79
2023/08/19 09:16:55;;;;;;;26.75;18.88;;;;;;;30.76;46.33;101260.97;6158844;23;20028;-79
2023/08/19 09:19:22;;;;;;;25.75;18.52;;;;;;;30.82;45.54;101265.41;6158829;23;20017;-81
2023/08/19 09:21:53;;;;;;;25.13;18.27;;;;;;;31.07;45.71;101289.59;6173966;23;20020;-81
2023/08/19 09:24:21;;;;;;;20.45;18.08;;;;;;;31.20;45.43;101282.88;6179663;23;20644;-81
2023/08/19 09:26:56;;;;;;;23.70;18.55;;;;;;;30.88;45.45;101198.66;6141452;23;20352;-80
2023/08/19 09:29:25;;;;;;;22.95;18.67;;;;;;;31.57;44.66;101265.72;6150334;23;20500;-80
2023/08/19 09:31:53;;;;;;;22.65;18.38;;;;;;;31.62;44.55;101257.53;6185633;23;20028;-80
2023/08/19 09:34:20;;;;;;;20.38;18.20;;;;;;;31.75;44.76;101278.22;6160206;23;20872;-80
2023/08/19 09:36:48;;;;;;;21.08;17.13;;;;;;;31.94;43.74;101270.41;6167568;23;20024;-81
2023/08/19 09:39:15;;;;;;;20.88;18.25;;;;;;;31.99;44.19;101275.94;6142967;23;20392;-81
2023/08/19 09:41:41;;;;;;;18.80;16.85;;;;;;;32.17;43.57;101271.16;6162098;23;20024;-80
2023/08/19 09:44:14;;;;;;;24.67;17.75;;;;;;;32.44;43.22;101274.59;6169318;23;20017;-82
2023/08/19 09:46:42;;;;;;;19.52;16.65;;;;;;;32.17;42.53;101208.81;6165354;23;20104;-83
2023/08/19 09:49:20;;;;;;;21.45;17.58;;;;;;;32.47;42.85;101263.06;6172145;23;20021;-82
2023/08/19 09:51:55;;;;;;;18.98;16.08;;;;;;;32.54;42.30;101263.69;6174888;23;20659;-81
2023/08/19 09:54:24;;;;;;;19.33;17.23;;;;;;;32.67;42.40;101261.53;6155298;23;20780;-82
2023/08/19 09:56:57;;;;;;;23.10;16.75;;;;;;;32.85;42.00;101261.06;6157979;23;20419;-81
2023/08/19 09:59:26;;;;;;;23.67;17.20;;;;;;;33.12;41.39;101260.06;6182959;23;20471;-81
2023/08/19 10:01:53;;;;;;;28.52;17.25;;;;;;;33.17;41.16;101244.41;6173037;23;20171;-82
2023/08/19 10:04:20;;;;;;;19.30;16.08;;;;;;;33.34;40.72;101254.34;6171199;23;20399;-80
2023/08/19 10:06:56;;;;;;;20.63;17.25;;;;;;;33.26;40.95;101213.63;6172640;23;20100;-81
2023/08/19 10:09:26;;;;;;;20.63;16.30;;;;;;;33.67;40.17;101252.16;6124447;23;20023;-79
2023/08/19 10:11:55;;;;;;;16.80;14.98;;;;;;;33.62;40.21;101244.75;6180096;23;20345;-80
2023/08/19 10:14:30;;;;;;;20.33;15.48;;;;;;;33.51;39.19;101232.06;6174988;23;20078;-81
2023/08/19 10:17:07;;;;;;;23.17;16.00;;;;;;;33.56;39.19;101219.13;6181187;23;20016;-80
2023/08/19 10:19:59;;;;;;;27.75;16.52;;;;;;;33.88;38.80;101258.50;6154939;23;20152;-80
2023/08/19 10:22:30;;;;;;;21.75;16.27;;;;;;;33.88;39.80;101242.78;6178481;23;20024;-80
2023/08/19 10:24:59;;;;;;;17.83;15.18;;;;;;;34.11;39.22;101241.41;6186840;23;20167;-80
2023/08/19 10:27:26;;;;;;;27.83;16.27;;;;;;;33.96;39.06;101205.59;6176165;23;20021;-80
2023/08/19 10:29:57;;;;;;;22.38;14.90;;;;;;;34.53;38.30;101270.50;6190816;23;20017;-82
2023/08/19 10:32:33;;;;;;;19.50;15.90;;;;;;;34.52;38.89;101252.31;6165283;23;20051;-82
2023/08/19 10:35:09;;;;;;;17.13;14.88;;;;;;;34.62;38.33;101251.47;6172441;23;20379;-82
2023/08/19 10:37:48;;;;;;;16.42;14.18;;;;;;;34.80;37.34;101261.03;6177976;23;20087;-82
2023/08/19 10:40:26;;;;;;;18.85;14.98;;;;;;;35.08;37.42;101265.03;6168203;23;20025;-81
2023/08/19 10:43:01;;;;;;;16.08;14.23;;;;;;;35.13;37.09;101273.31;6181460;23;20031;-82
2023/08/19 10:45:32;;;;;;;22.67;16.35;;;;;;;35.20;37.27;101257.25;6182495;23;20448;-84
2023/08/19 10:48:01;;;;;;;19.17;15.25;;;;;;;35.21;37.15;101236.81;6181963;23;20020;-81
2023/08/19 10:50:37;;;;;;;17.58;15.45;;;;;;;35.54;37.75;101250.94;6178400;23;20304;-82
2023/08/19 10:53:07;;;;;;;20.48;14.98;;;;;;;35.27;36.98;101185.16;6189297;23;20087;-83
2023/08/19 10:55:53;;;;;;;17.92;14.05;;;;;;;35.58;35.85;101216.09;6179890;23;20484;-83
2023/08/19 10:58:22;;;;;;;23.75;16.25;;;;;;;35.77;36.30;101248.56;6180672;23;20023;-82
2023/08/19 11:00:49;;;;;;;22.55;16.33;;;;;;;35.73;36.11;101238.09;6181238;23;20452;-83
2023/08/19 11:03:16;;;;;;;20.55;14.90;;;;;;;35.89;35.57;101251.75;6175210;23;20471;-83
2023/08/19 11:05:48;;;;;;;18.77;15.18;;;;;;;35.98;35.56;101246.41;6181894;23;20044;-82
2023/08/19 11:08:15;;;;;;;18.52;14.48;;;;;;;36.09;35.76;101256.25;6185347;23;20099;-82
2023/08/19 11:10:46;;;;;;;20.38;14.77;;;;;;;35.94;35.24;101188.97;6177489;23;20067;-81
2023/08/19 11:13:14;;;;;;;17.98;14.93;;;;;;;36.34;34.42;101239.41;6175171;23;20223;-83
2023/08/19 11:15:41;;;;;;;20.63;15.52;;;;;;;36.48;34.92;101249.75;6190457;23;20025;-82
2023/08/19 11:18:08;;;;;;;16.98;14.95;;;;;;;36.57;34.60;101261.81;6187096;23;20020;-83
2023/08/19 11:20:35;;;;;;;15.15;13.57;;;;;;;36.31;34.20;101189.41;6187953;23;20020;-82
2023/08/19 11:23:02;;;;;;;19.23;13.77;;;;;;;36.56;33.79;101222.28;6179793;23;20074;-82